Pickaway, West Virginia
Current Conditions -  °F | °C
As of 6:15 AM on Friday 28 Nov 2014 (Local Time) from KLWB Reporting Station
Light Snow Light Snow  
Wind Chill: 20°   Ceiling: 3600
Heat Index: 26°   Visibility: 10mi
Dew Point: 20°   Wind: 6mph
Humidity: 76%   Direction: 330°NNW
Pressure: 30.23"   Gusts: NA
Location:  37.669°N, 80.524°W
Report Text: KLWB 281115Z AUTO 33005KT 10SM -SN SCT029 OVC036 M03/M07 A3023 RMK AO2 T10321068
Loading
Personal Weather Stations






























Interactive Weather Map New forecast layout! Learn more

10-Day Weather Forecast

Advertisements
Track Severe Weather on mobile